Time;durP1;ratioP1;P1;durP2;ratioP2;P2;SDS_P1;SDS_P2;PMS_P1;PMS_P2;Temp;Humidity;BMP_temperature;BMP_pressure;BME280_temperature;BME280_humidity;BME280_pressure;Samples;Min_cycle;Max_cycle;Signal;HPM_P1;HPM_P2
2022/10/24 00:00:27;;;;;;;2.63;2.43;;;;;;;14.53;100.00;99660.06;4993976;28;20208;-79
2022/10/24 00:02:53;;;;;;;3.83;2.03;;;;;;;14.50;100.00;99656.66;4993416;28;20221;-80
2022/10/24 00:05:20;;;;;;;3.93;2.43;;;;;;;14.50;100.00;99653.19;4994298;28;20208;-80
2022/10/24 00:07:48;;;;;;;3.07;2.40;;;;;;;14.46;100.00;99656.88;4994136;28;20213;-79
2022/10/24 00:10:14;;;;;;;6.53;2.30;;;;;;;14.48;100.00;99655.88;4993567;28;20213;-80
2022/10/24 00:12:41;;;;;;;2.10;1.80;;;;;;;14.53;100.00;99655.69;4993631;28;20226;-78
2022/10/24 00:15:08;;;;;;;6.57;2.30;;;;;;;14.53;100.00;99660.94;4993734;28;20235;-80
2022/10/24 00:17:37;;;;;;;3.97;1.83;;;;;;;14.48;100.00;99663.75;4994056;28;20233;-79
2022/10/24 00:20:04;;;;;;;2.90;1.80;;;;;;;14.48;100.00;99661.13;4993690;28;20286;-79
2022/10/24 00:22:31;;;;;;;3.93;2.23;;;;;;;14.48;100.00;99669.00;4993720;28;20558;-79
2022/10/24 00:24:58;;;;;;;2.80;1.97;;;;;;;14.46;100.00;99689.22;4993899;28;20242;-81
2022/10/24 00:27:24;;;;;;;2.80;2.60;;;;;;;14.35;100.00;99682.78;4993130;28;20702;-80
2022/10/24 00:29:51;;;;;;;2.23;2.00;;;;;;;14.37;100.00;99673.94;4993630;28;20209;-78
2022/10/24 00:32:17;;;;;;;3.90;2.30;;;;;;;14.37;100.00;99657.31;4993414;28;20235;-80
2022/10/24 00:34:45;;;;;;;3.77;2.13;;;;;;;14.40;100.00;99655.38;4993018;28;20664;-79
2022/10/24 00:37:12;;;;;;;13.63;3.70;;;;;;;14.44;100.00;99656.09;4993147;28;20218;-79
2022/10/24 00:39:38;;;;;;;5.10;2.17;;;;;;;14.39;100.00;99661.59;4993818;28;20214;-80
2022/10/24 00:42:05;;;;;;;5.33;1.93;;;;;;;14.39;100.00;99668.59;4993761;28;20217;-81
2022/10/24 00:44:33;;;;;;;5.20;1.90;;;;;;;14.41;100.00;99672.00;4997131;28;20230;-81
2022/10/24 00:47:03;;;;;;;5.53;3.57;;;;;;;14.37;100.00;99681.81;4997231;28;20216;-80
2022/10/24 00:49:34;;;;;;;4.20;2.30;;;;;;;14.34;100.00;99679.31;4997383;28;20558;-81
2022/10/24 00:52:06;;;;;;;4.73;2.10;;;;;;;14.29;100.00;99678.66;4996432;28;20216;-79
2022/10/24 00:54:34;;;;;;;6.03;2.60;;;;;;;14.22;100.00;99658.88;4996763;28;20657;-79
2022/10/24 00:57:08;;;;;;;6.87;2.13;;;;;;;14.22;100.00;99649.22;4996688;28;20208;-79
2022/10/24 00:59:36;;;;;;;4.73;2.43;;;;;;;14.16;100.00;99639.03;4996907;28;20215;-79
2022/10/24 01:02:03;;;;;;;2.17;2.00;;;;;;;14.21;100.00;99636.19;4996625;28;20212;-79
2022/10/24 01:04:30;;;;;;;2.80;2.10;;;;;;;14.22;100.00;99630.84;4996979;28;20231;-80
2022/10/24 01:07:14;;;;;;;2.40;2.20;;;;;;;14.32;100.00;99628.66;4997139;28;20219;-79
2022/10/24 01:09:57;;;;;;;2.37;2.17;;;;;;;14.31;100.00;99621.72;4997345;28;20216;-80
2022/10/24 01:12:33;;;;;;;3.07;2.23;;;;;;;14.38;100.00;99633.59;4997065;28;20216;-80
2022/10/24 01:15:12;;;;;;;3.90;2.40;;;;;;;14.42;100.00;99627.28;4996944;28;20246;-81
2022/10/24 01:17:45;;;;;;;8.77;2.80;;;;;;;14.45;100.00;99637.66;4996732;28;20598;-79
2022/10/24 01:20:52;;;;;;;3.53;2.43;;;;;;;14.48;100.00;99641.91;4996797;28;20734;-80
2022/10/24 01:23:32;;;;;;;3.00;2.60;;;;;;;14.43;100.00;99636.88;4996609;28;20225;-79
2022/10/24 01:26:15;;;;;;;3.07;2.30;;;;;;;14.44;100.00;99621.97;4996216;28;20207;-80
2022/10/24 01:28:51;;;;;;;4.40;2.80;;;;;;;14.49;100.00;99630.50;4996362;28;20204;-80
2022/10/24 01:31:27;;;;;;;3.50;2.47;;;;;;;14.49;100.00;99627.88;4996469;28;20663;-80
2022/10/24 01:33:58;;;;;;;4.40;2.47;;;;;;;14.53;100.00;99629.41;4996565;28;20240;-81
2022/10/24 01:36:33;;;;;;;5.57;2.50;;;;;;;14.50;100.00;99632.16;4996520;28;20220;-80
2022/10/24 01:39:04;;;;;;;5.73;2.43;;;;;;;14.54;100.00;99628.47;4996683;28;20209;-81
2022/10/24 01:41:31;;;;;;;3.37;2.60;;;;;;;14.57;100.00;99644.13;4996086;28;20204;-79
2022/10/24 01:44:04;;;;;;;6.10;3.03;;;;;;;14.54;100.00;99643.38;4996288;28;20221;-80
2022/10/24 01:46:37;;;;;;;2.60;2.17;;;;;;;14.53;100.00;99642.53;4996255;28;20213;-81
2022/10/24 01:49:09;;;;;;;4.63;3.10;;;;;;;14.54;100.00;99635.50;4996438;28;20585;-82
2022/10/24 01:51:38;;;;;;;4.00;2.80;;;;;;;14.54;100.00;99646.84;4996293;28;20216;-81
2022/10/24 01:54:07;;;;;;;4.40;2.40;;;;;;;14.54;100.00;99644.22;4995327;28;20239;-81
2022/10/24 01:56:33;;;;;;;4.30;2.40;;;;;;;14.53;100.00;99634.66;4996364;28;20204;-80
2022/10/24 01:59:07;;;;;;;3.50;2.10;;;;;;;14.52;100.00;99646.09;4995837;28;20698;-80
2022/10/24 02:01:37;;;;;;;3.23;2.57;;;;;;;14.55;100.00;99645.06;4995615;28;20213;-79
2022/10/24 02:04:08;;;;;;;4.43;2.83;;;;;;;14.48;100.00;99640.13;4995926;28;20224;-80
2022/10/24 02:06:39;;;;;;;3.23;2.93;;;;;;;14.46;100.00;99638.50;4996163;28;20211;-80
2022/10/24 02:09:10;;;;;;;4.47;2.40;;;;;;;14.47;100.00;99641.06;4995901;28;20207;-81
2022/10/24 02:11:38;;;;;;;5.70;2.57;;;;;;;14.42;100.00;99639.56;4995757;28;20693;-80
2022/10/24 02:14:10;;;;;;;2.97;2.37;;;;;;;14.42;100.00;99634.31;4995879;28;20239;-80
2022/10/24 02:16:38;;;;;;;10.50;3.27;;;;;;;14.27;100.00;99633.25;4995994;28;20212;-80
2022/10/24 02:19:05;;;;;;;7.20;2.90;;;;;;;14.29;100.00;99623.53;4995714;28;20627;-81
2022/10/24 02:21:37;;;;;;;7.77;3.40;;;;;;;14.26;100.00;99618.44;4995211;28;20209;-81
2022/10/24 02:24:10;;;;;;;9.00;2.40;;;;;;;14.26;100.00;99621.06;4995590;28;20259;-80
2022/10/24 02:26:45;;;;;;;4.93;2.30;;;;;;;14.26;100.00;99610.56;4995760;28;20209;-80
2022/10/24 02:29:16;;;;;;;4.90;2.70;;;;;;;14.24;100.00;99601.91;4995548;28;20250;-80
2022/10/24 02:31:50;;;;;;;4.00;2.27;;;;;;;14.19;100.00;99601.28;4995188;28;20211;-81
2022/10/24 02:34:18;;;;;;;7.30;2.23;;;;;;;14.19;100.00;99599.53;4995069;28;20770;-81
2022/10/24 02:36:47;;;;;;;5.00;2.67;;;;;;;14.21;100.00;99605.56;4995543;28;20636;-81
2022/10/24 02:39:16;;;;;;;2.43;2.23;;;;;;;14.24;100.00;99605.38;4995195;28;20209;-80
2022/10/24 02:41:45;;;;;;;7.07;2.57;;;;;;;14.25;100.00;99609.72;4995265;28;20208;-79
2022/10/24 02:44:13;;;;;;;6.13;2.67;;;;;;;14.26;100.00;99615.81;4995079;28;20610;-81
2022/10/24 02:46:42;;;;;;;4.77;2.90;;;;;;;14.30;100.00;99625.25;4995504;28;20211;-80
2022/10/24 02:49:10;;;;;;;3.27;2.47;;;;;;;14.32;100.00;99633.06;4995538;28;20216;-81
2022/10/24 02:51:39;;;;;;;4.57;2.57;;;;;;;14.34;100.00;99633.84;4995031;28;20209;-80
2022/10/24 02:54:07;;;;;;;3.93;2.60;;;;;;;14.39;100.00;99629.19;4995183;28;20236;-81
2022/10/24 02:56:37;;;;;;;4.63;2.73;;;;;;;14.41;100.00;99638.72;4995548;28;20218;-81
2022/10/24 02:59:03;;;;;;;5.27;2.87;;;;;;;14.41;100.00;99630.84;4994798;28;20214;-80
2022/10/24 03:01:29;;;;;;;3.97;2.90;;;;;;;14.49;100.00;99633.97;4994903;28;20595;-81
2022/10/24 03:03:56;;;;;;;10.33;3.10;;;;;;;14.49;100.00;99623.44;4994548;28;20220;-81
2022/10/24 03:06:24;;;;;;;5.53;2.90;;;;;;;14.50;100.00;99609.38;4994788;28;20682;-80
2022/10/24 03:08:50;;;;;;;3.43;2.47;;;;;;;14.51;100.00;99610.25;4994965;28;20313;-80
2022/10/24 03:11:17;;;;;;;8.87;2.83;;;;;;;14.54;100.00;99601.38;4994196;28;20212;-80
2022/10/24 03:13:43;;;;;;;3.93;2.77;;;;;;;14.49;100.00;99599.81;4995378;28;20372;-80
2022/10/24 03:16:10;;;;;;;7.57;3.17;;;;;;;14.54;100.00;99589.06;4994761;28;20685;-81
2022/10/24 03:18:36;;;;;;;6.80;2.70;;;;;;;14.52;100.00;99590.94;4994566;28;20682;-80
2022/10/24 03:21:03;;;;;;;4.00;3.30;;;;;;;14.53;100.00;99584.78;4994531;28;20696;-79
2022/10/24 03:23:30;;;;;;;4.97;3.07;;;;;;;14.51;100.00;99576.13;4994769;28;20228;-80
2022/10/24 03:25:59;;;;;;;6.70;3.57;;;;;;;14.56;100.00;99600.38;4994268;28;20594;-80
2022/10/24 03:28:25;;;;;;;7.00;3.00;;;;;;;14.60;100.00;99601.09;4994492;28;20209;-80
2022/10/24 03:30:53;;;;;;;7.63;3.00;;;;;;;14.56;100.00;99605.66;4994334;28;20204;-81
2022/10/24 03:33:20;;;;;;;5.27;2.47;;;;;;;14.56;100.00;99596.88;4994790;28;20224;-80
2022/10/24 03:35:46;;;;;;;3.50;2.50;;;;;;;14.59;100.00;99600.25;4994918;28;20215;-79
2022/10/24 03:38:12;;;;;;;4.80;3.30;;;;;;;14.60;100.00;99594.06;4994826;28;20216;-80
2022/10/24 03:40:41;;;;;;;3.60;2.77;;;;;;;14.62;100.00;99596.63;4993999;28;20251;-81
2022/10/24 03:43:08;;;;;;;6.87;2.80;;;;;;;14.61;100.00;99594.94;4994316;28;20236;-81
2022/10/24 03:45:36;;;;;;;5.17;3.30;;;;;;;14.63;100.00;99598.34;4994903;28;20208;-81
2022/10/24 03:48:02;;;;;;;4.33;3.43;;;;;;;14.65;100.00;99610.47;4995176;28;20295;-80
2022/10/24 03:50:29;;;;;;;7.03;3.30;;;;;;;14.63;100.00;99607.06;4994331;28;20213;-80
2022/10/24 03:52:55;;;;;;;7.40;3.57;;;;;;;14.72;100.00;99599.66;4995316;28;20212;-79
2022/10/24 03:55:22;;;;;;;5.80;3.37;;;;;;;14.70;100.00;99597.94;4994682;28;20228;-81
2022/10/24 03:57:50;;;;;;;6.47;3.60;;;;;;;14.66;100.00;99601.63;4995197;28;20215;-80
2022/10/24 04:00:18;;;;;;;11.93;3.83;;;;;;;14.73;100.00;99589.06;4994676;28;20205;-80
2022/10/24 04:02:44;;;;;;;6.03;3.13;;;;;;;14.74;100.00;99577.63;4995071;28;20251;-79
2022/10/24 04:05:11;;;;;;;5.23;3.17;;;;;;;14.76;100.00;99580.16;4994368;28;20205;-81
2022/10/24 04:07:38;;;;;;;8.23;3.10;;;;;;;14.82;100.00;99574.59;4994671;28;20583;-81
2022/10/24 04:10:05;;;;;;;7.07;3.50;;;;;;;14.83;100.00;99584.19;4994570;28;20208;-80
2022/10/24 04:12:32;;;;;;;7.57;3.37;;;;;;;14.84;100.00;99585.88;4994951;28;20232;-79
2022/10/24 04:15:00;;;;;;;9.47;3.40;;;;;;;14.74;100.00;99575.00;4994360;28;20583;-80
2022/10/24 04:17:26;;;;;;;5.87;3.03;;;;;;;14.70;100.00;99558.53;4995682;28;20236;-80
2022/10/24 04:19:53;;;;;;;5.67;2.77;;;;;;;14.72;100.00;99566.34;4997941;28;20216;-80
2022/10/24 04:22:19;;;;;;;7.43;3.53;;;;;;;14.76;100.00;99565.25;4998434;28;20211;-80
2022/10/24 04:24:46;;;;;;;5.57;3.27;;;;;;;14.80;100.00;99565.94;4998443;28;20223;-81
2022/10/24 04:27:12;;;;;;;5.67;3.20;;;;;;;14.85;100.00;99577.94;4998541;28;20216;-81
2022/10/24 04:29:39;;;;;;;5.47;3.23;;;;;;;14.89;100.00;99573.38;4998349;28;20213;-80
2022/10/24 04:32:07;;;;;;;4.23;2.83;;;;;;;14.85;100.00;99587.59;4997724;28;20213;-80
2022/10/24 04:34:34;;;;;;;7.63;3.70;;;;;;;14.87;100.00;99575.25;4999282;28;20248;-79
2022/10/24 04:37:01;;;;;;;7.00;3.50;;;;;;;14.84;100.00;99570.97;4997608;28;20212;-80
2022/10/24 04:39:27;;;;;;;10.77;3.13;;;;;;;14.88;100.00;99569.91;4998002;28;20216;-81
2022/10/24 04:41:54;;;;;;;7.17;3.03;;;;;;;14.86;100.00;99557.75;4991562;28;20212;-79
2022/10/24 04:44:20;;;;;;;4.93;3.20;;;;;;;14.88;100.00;99559.41;4987272;28;20213;-80
2022/10/24 04:46:47;;;;;;;9.27;3.10;;;;;;;14.89;100.00;99576.00;4985886;28;20684;-78
2022/10/24 04:49:14;;;;;;;6.33;3.60;;;;;;;14.88;100.00;99590.06;4988056;28;20740;-78
2022/10/24 04:51:41;;;;;;;6.23;3.40;;;;;;;14.91;100.00;99589.91;4987282;28;20212;-79
2022/10/24 04:54:07;;;;;;;6.17;3.20;;;;;;;14.89;100.00;99591.78;4986496;28;20306;-80
2022/10/24 04:56:34;;;;;;;5.07;2.90;;;;;;;14.83;100.00;99585.03;4985484;28;20204;-78
2022/10/24 04:59:01;;;;;;;7.47;2.77;;;;;;;14.92;100.00;99582.88;4985982;28;20214;-79
2022/10/24 05:01:27;;;;;;;9.30;3.50;;;;;;;14.91;100.00;99589.06;4987454;28;20195;-80
2022/10/24 05:03:54;;;;;;;5.67;3.00;;;;;;;14.92;100.00;99586.34;4985871;28;20221;-78
2022/10/24 05:06:22;;;;;;;5.53;2.87;;;;;;;14.96;100.00;99589.69;4986198;28;20197;-79
2022/10/24 05:08:48;;;;;;;3.70;2.80;;;;;;;14.94;100.00;99591.53;4987478;28;20212;-80
2022/10/24 05:11:14;;;;;;;6.67;2.73;;;;;;;14.95;100.00;99590.63;4985237;28;20228;-79
2022/10/24 05:13:41;;;;;;;4.23;3.10;;;;;;;14.96;100.00;99584.41;4985811;28;20231;-79
2022/10/24 05:16:07;;;;;;;6.43;3.30;;;;;;;15.00;100.00;99593.84;4986897;28;20221;-79
2022/10/24 05:18:34;;;;;;;6.03;3.10;;;;;;;14.93;100.00;99593.31;4985468;28;20205;-80
2022/10/24 05:21:01;;;;;;;7.63;3.63;;;;;;;14.98;100.00;99590.44;4985477;28;20220;-79
2022/10/24 05:23:28;;;;;;;6.33;3.13;;;;;;;14.94;100.00;99587.13;4986653;28;20236;-79
2022/10/24 05:25:55;;;;;;;4.27;3.20;;;;;;;14.97;100.00;99584.34;4985690;28;20209;-77
2022/10/24 05:28:21;;;;;;;5.27;3.00;;;;;;;14.95;100.00;99588.00;4985296;28;20205;-78
2022/10/24 05:30:48;;;;;;;8.57;3.00;;;;;;;15.02;100.00;99586.72;4986562;28;20204;-79
2022/10/24 05:33:14;;;;;;;6.73;3.67;;;;;;;15.01;100.00;99588.53;4985229;28;20221;-78
2022/10/24 05:35:41;;;;;;;8.87;3.03;;;;;;;15.00;100.00;99594.69;4985500;28;20225;-79
2022/10/24 05:38:08;;;;;;;5.77;3.40;;;;;;;15.04;100.00;99601.53;4987096;28;20213;-79
2022/10/24 05:40:36;;;;;;;5.87;3.03;;;;;;;15.01;100.00;99600.81;4984931;28;20611;-78
2022/10/24 05:43:02;;;;;;;6.73;3.23;;;;;;;15.04;100.00;99605.91;4986203;28;20212;-77
2022/10/24 05:45:29;;;;;;;10.70;3.43;;;;;;;15.07;100.00;99603.97;4984408;28;20197;-77
2022/10/24 05:47:55;;;;;;;15.30;3.90;;;;;;;15.08;99.72;99607.44;4986191;28;20256;-77
2022/10/24 05:50:22;;;;;;;7.67;3.67;;;;;;;15.05;100.00;99603.19;4985336;28;20626;-78
2022/10/24 05:52:48;;;;;;;10.63;3.13;;;;;;;15.04;99.81;99606.78;4983915;28;20583;-78
2022/10/24 05:55:15;;;;;;;5.80;3.03;;;;;;;15.00;99.89;99613.09;4985981;28;20222;-78
2022/10/24 05:57:43;;;;;;;6.67;4.20;;;;;;;15.02;99.68;99613.84;4984921;28;20213;-78
2022/10/24 06:00:14;;;;;;;5.27;2.70;;;;;;;15.00;99.65;99620.97;4984206;28;20202;-78
2022/10/24 06:02:40;;;;;;;5.70;2.90;;;;;;;15.06;99.29;99625.94;4984848;28;20210;-79
2022/10/24 06:05:08;;;;;;;8.70;3.30;;;;;;;15.10;99.14;99639.75;4986580;28;20231;-79
2022/10/24 06:07:35;;;;;;;6.63;2.80;;;;;;;15.13;98.59;99646.66;4984298;28;20206;-79
2022/10/24 06:10:02;;;;;;;8.63;3.17;;;;;;;15.13;98.30;99647.50;4984444;28;20208;-77
2022/10/24 06:12:29;;;;;;;9.57;3.57;;;;;;;15.12;98.11;99660.72;4986011;28;20690;-79
2022/10/24 06:14:58;;;;;;;4.83;3.10;;;;;;;15.12;97.88;99666.81;4984378;28;20230;-78
2022/10/24 06:17:25;;;;;;;4.63;3.20;;;;;;;15.08;97.58;99666.16;4984342;28;20208;-78
2022/10/24 06:19:51;;;;;;;7.03;2.83;;;;;;;15.13;97.35;99684.31;4985673;28;20205;-78
2022/10/24 06:22:18;;;;;;;8.20;3.23;;;;;;;15.16;97.01;99668.34;4984574;28;20210;-78
2022/10/24 06:24:45;;;;;;;6.77;3.23;;;;;;;15.17;96.91;99666.59;4983993;28;20224;-79
2022/10/24 06:27:12;;;;;;;6.07;3.33;;;;;;;15.18;97.29;99668.28;4986763;28;20201;-78
2022/10/24 06:29:38;;;;;;;6.20;2.97;;;;;;;15.13;96.53;99676.41;4984715;28;20201;-78
2022/10/24 06:32:06;;;;;;;9.03;2.80;;;;;;;15.13;96.71;99679.03;4983720;28;20208;-78
2022/10/24 06:34:32;;;;;;;6.43;3.10;;;;;;;15.17;96.46;99682.38;4982738;28;20227;-77
2022/10/24 06:36:59;;;;;;;5.13;3.10;;;;;;;15.21;96.60;99668.16;4984099;28;20671;-79
2022/10/24 06:39:25;;;;;;;4.20;2.83;;;;;;;15.18;96.03;99684.94;4984799;28;20214;-78
2022/10/24 06:41:52;;;;;;;5.37;2.67;;;;;;;15.24;96.11;99702.16;4983526;28;20202;-77
2022/10/24 06:44:18;;;;;;;6.53;3.27;;;;;;;15.26;95.54;99706.44;4983946;28;20221;-79
2022/10/24 06:46:45;;;;;;;4.30;2.97;;;;;;;15.26;95.64;99698.53;4985518;28;20203;-78
2022/10/24 06:49:13;;;;;;;10.50;3.50;;;;;;;15.32;95.45;99696.50;4984356;28;20213;-78
2022/10/24 06:51:40;;;;;;;5.50;3.00;;;;;;;15.32;95.10;99710.53;4982751;28;20202;-78
2022/10/24 06:54:07;;;;;;;5.87;2.70;;;;;;;15.34;95.04;99727.09;4983816;28;20222;-79
2022/10/24 06:56:34;;;;;;;5.40;2.83;;;;;;;15.33;94.13;99732.41;4984115;28;20236;-77
2022/10/24 06:59:00;;;;;;;5.30;2.63;;;;;;;15.36;94.29;99742.75;4984883;28;20294;-79
2022/10/24 07:01:27;;;;;;;8.70;3.13;;;;;;;15.41;93.89;99751.28;4982683;28;20211;-78
2022/10/24 07:03:54;;;;;;;5.00;2.30;;;;;;;15.38;93.63;99757.56;4985739;28;20248;-79
2022/10/24 07:06:24;;;;;;;6.07;2.80;;;;;;;15.45;93.23;99761.56;4984335;28;20205;-78
2022/10/24 07:08:53;;;;;;;5.83;2.40;;;;;;;15.48;93.09;99779.84;4983888;28;20209;-78
2022/10/24 07:11:19;;;;;;;12.10;3.00;;;;;;;15.56;92.93;99779.47;4982579;28;20706;-79
2022/10/24 07:13:46;;;;;;;5.60;2.50;;;;;;;15.57;91.51;99796.94;4988232;28;20227;-80
2022/10/24 07:16:12;;;;;;;8.33;3.27;;;;;;;15.60;91.85;99798.56;4994359;28;20221;-79
2022/10/24 07:18:39;;;;;;;6.17;3.03;;;;;;;15.59;91.39;99810.88;4992601;28;20203;-78
2022/10/24 07:21:08;;;;;;;9.43;3.23;;;;;;;15.66;91.25;99819.31;4993026;28;20283;-79
2022/10/24 07:23:36;;;;;;;5.83;3.13;;;;;;;15.71;91.49;99824.34;4993747;28;20240;-79
2022/10/24 07:26:04;;;;;;;9.03;2.57;;;;;;;15.74;91.76;99817.19;4993665;28;20203;-79
2022/10/24 07:28:30;;;;;;;5.47;2.63;;;;;;;15.72;90.28;99852.34;4987918;28;20208;-78
2022/10/24 07:30:57;;;;;;;5.70;2.87;;;;;;;15.73;90.16;99847.03;4990224;28;20195;-79
2022/10/24 07:33:23;;;;;;;6.87;2.70;;;;;;;15.82;90.37;99854.50;4994254;28;20228;-78
2022/10/24 07:35:49;;;;;;;6.00;2.50;;;;;;;15.82;89.73;99858.91;4993910;28;20254;-79
2022/10/24 07:38:17;;;;;;;6.37;2.40;;;;;;;15.82;89.85;99867.66;4995108;28;20209;-79
2022/10/24 07:40:45;;;;;;;6.10;3.20;;;;;;;15.92;90.03;99867.19;4994585;28;20208;-79
2022/10/24 07:43:11;;;;;;;8.90;3.20;;;;;;;15.88;89.41;99871.75;4994665;28;20225;-79
2022/10/24 07:45:38;;;;;;;7.53;2.53;;;;;;;15.92;88.98;99881.19;4994280;28;20213;-81
2022/10/24 07:48:05;;;;;;;6.20;2.80;;;;;;;15.96;89.16;99887.16;4994397;28;20212;-80
2022/10/24 07:50:32;;;;;;;4.67;2.80;;;;;;;16.01;88.49;99887.78;4994140;28;20413;-78
2022/10/24 07:52:59;;;;;;;9.97;2.47;;;;;;;16.04;87.70;99908.69;4996293;28;20313;-80
2022/10/24 07:55:25;;;;;;;5.77;2.80;;;;;;;16.08;86.26;99939.19;4998091;28;20225;-79
2022/10/24 07:57:53;;;;;;;3.57;2.23;;;;;;;16.15;86.70;99932.69;4998012;28;20216;-79
2022/10/24 08:00:20;;;;;;;4.70;2.20;;;;;;;16.20;85.58;99961.44;4997671;28;20217;-80
2022/10/24 08:02:46;;;;;;;7.43;3.00;;;;;;;16.24;85.76;99969.09;4998339;28;20208;-79
2022/10/24 08:05:13;;;;;;;7.67;2.20;;;;;;;16.28;84.68;99990.88;4997810;28;20687;-79
2022/10/24 08:07:39;;;;;;;5.53;2.30;;;;;;;16.35;83.00;100010.72;4998027;28;20225;-79
2022/10/24 08:10:08;;;;;;;5.97;2.10;;;;;;;16.49;82.70;100033.75;4998028;28;20206;-79
2022/10/24 08:12:34;;;;;;;9.90;3.07;;;;;;;16.57;83.26;100030.69;4997150;28;20218;-80
2022/10/24 08:15:02;;;;;;;3.73;1.90;;;;;;;16.57;82.34;100042.13;4997845;28;20234;-79
2022/10/24 08:17:29;;;;;;;9.70;2.23;;;;;;;16.58;82.73;100040.31;4997611;28;20235;-80
2022/10/24 08:19:55;;;;;;;4.33;2.70;;;;;;;16.63;82.21;100052.34;4997476;28;20221;-79
2022/10/24 08:22:22;;;;;;;5.00;2.60;;;;;;;16.74;81.20;100088.69;4997563;28;20220;-79
2022/10/24 08:24:48;;;;;;;4.90;2.43;;;;;;;16.83;80.91;100103.25;4997420;28;20237;-78
2022/10/24 08:27:15;;;;;;;5.03;2.50;;;;;;;16.88;80.18;100117.03;4997326;28;20206;-79
2022/10/24 08:29:41;;;;;;;5.20;2.27;;;;;;;16.85;79.81;100101.38;4997128;28;20579;-79
2022/10/24 08:32:09;;;;;;;6.80;2.17;;;;;;;16.86;79.44;100109.19;4996363;28;20209;-79
2022/10/24 08:34:38;;;;;;;3.07;2.20;;;;;;;16.89;80.37;100110.84;4996813;28;20241;-78
2022/10/24 08:37:04;;;;;;;4.30;2.00;;;;;;;16.90;79.59;100114.31;4997509;28;20235;-79
2022/10/24 08:39:31;;;;;;;5.00;2.67;;;;;;;16.91;79.18;100113.38;4996997;28;20215;-79
2022/10/24 08:42:01;;;;;;;4.93;2.03;;;;;;;16.96;79.63;100108.72;4997168;28;20211;-79
2022/10/24 08:44:30;;;;;;;5.63;2.43;;;;;;;17.02;78.43;100133.00;4996559;28;20234;-80
2022/10/24 08:47:01;;;;;;;3.87;2.40;;;;;;;17.04;78.79;100122.38;4996968;28;20207;-79
2022/10/24 08:49:36;;;;;;;5.50;2.33;;;;;;;17.06;77.85;100136.34;4996602;28;20221;-79
2022/10/24 08:52:11;;;;;;;5.33;2.30;;;;;;;17.10;80.15;100100.13;4996504;28;20206;-79
2022/10/24 08:54:41;;;;;;;5.03;2.60;;;;;;;17.11;78.03;100123.78;4997483;28;20225;-80
2022/10/24 08:57:17;;;;;;;7.87;2.43;;;;;;;17.17;78.67;100112.91;4997630;28;20281;-81
2022/10/24 08:59:43;;;;;;;4.33;2.20;;;;;;;17.20;78.37;100101.34;4996669;28;20686;-81
2022/10/24 09:02:18;;;;;;;6.13;2.47;;;;;;;17.22;78.00;100110.03;4997826;28;20221;-79
2022/10/24 09:04:51;;;;;;;3.87;1.83;;;;;;;17.26;77.34;100122.13;4997689;28;20237;-80
2022/10/24 09:07:21;;;;;;;5.93;2.20;;;;;;;17.31;78.06;100119.28;4998266;28;20682;-80
2022/10/24 09:09:49;;;;;;;4.67;1.97;;;;;;;17.35;76.53;100149.84;4997878;28;20703;-79
2022/10/24 09:12:19;;;;;;;3.87;1.87;;;;;;;17.42;76.41;100157.34;4997710;28;20261;-79
2022/10/24 09:14:49;;;;;;;4.70;2.00;;;;;;;17.47;77.32;100138.63;4997991;28;20239;-81
2022/10/24 09:17:19;;;;;;;4.37;1.90;;;;;;;17.51;76.76;100144.59;4997116;28;20246;-79
2022/10/24 09:19:53;;;;;;;6.87;2.77;;;;;;;17.58;75.58;100161.81;4998115;28;20204;-79
2022/10/24 09:22:21;;;;;;;4.53;2.00;;;;;;;17.60;76.31;100168.75;4997383;28;20217;-79
2022/10/24 09:24:52;;;;;;;3.77;2.17;;;;;;;17.66;76.42;100151.72;4996001;28;20235;-79
2022/10/24 09:27:21;;;;;;;5.53;2.27;;;;;;;17.67;75.11;100172.75;4996925;28;20207;-78
2022/10/24 09:29:48;;;;;;;3.90;2.07;;;;;;;17.66;75.42;100188.69;4997101;28;20207;-79
2022/10/24 09:32:17;;;;;;;5.60;2.40;;;;;;;17.71;74.05;100185.78;4999539;28;20215;-79
2022/10/24 09:34:44;;;;;;;5.27;2.07;;;;;;;17.79;74.72;100205.56;4998634;28;20235;-79
2022/10/24 09:37:30;;;;;;;5.80;2.20;;;;;;;17.81;75.60;100192.28;4997231;28;20736;-80
2022/10/24 09:40:07;;;;;;;4.17;1.80;;;;;;;17.83;74.35;100177.22;4996810;28;20207;-79
2022/10/24 09:42:36;;;;;;;4.00;2.00;;;;;;;17.88;74.21;100212.19;4996862;28;20211;-80
2022/10/24 09:45:18;;;;;;;3.50;1.90;;;;;;;17.91;73.61;100212.00;4996020;28;20613;-79
2022/10/24 09:47:45;;;;;;;4.33;2.10;;;;;;;17.95;74.63;100179.22;4996478;28;20207;-79
2022/10/24 09:50:20;;;;;;;4.40;2.00;;;;;;;17.96;72.68;100185.38;4995763;28;20220;-80
2022/10/24 09:52:51;;;;;;;6.00;2.30;;;;;;;17.98;73.57;100212.56;4996418;28;20218;-80
2022/10/24 09:55:20;;;;;;;3.60;2.10;;;;;;;17.96;72.72;100227.63;4996297;28;20218;-80
2022/10/24 09:57:47;;;;;;;5.70;2.50;;;;;;;18.02;70.84;100237.88;4996653;28;20207;-79
2022/10/24 10:00:23;;;;;;;4.70;2.23;;;;;;;18.08;70.52;100274.53;4995535;28;20211;-79
2022/10/24 10:02:58;;;;;;;6.53;1.73;;;;;;;18.15;71.05;100289.09;4996523;28;20234;-79
2022/10/24 10:05:24;;;;;;;7.30;1.97;;;;;;;18.15;71.85;100278.53;4997434;28;20579;-80
2022/10/24 10:07:52;;;;;;;5.60;2.30;;;;;;;18.18;72.21;100248.47;4997764;28;20237;-80
2022/10/24 10:10:27;;;;;;;3.97;1.70;;;;;;;18.19;72.03;100273.94;4997009;28;20227;-79
2022/10/24 10:13:05;;;;;;;2.83;2.10;;;;;;;18.23;72.25;100278.13;4996318;28;20219;-79
2022/10/24 10:15:34;;;;;;;4.67;1.67;;;;;;;18.19;69.18;100300.38;4994740;28;20593;-82
2022/10/24 10:18:05;;;;;;;4.17;1.90;;;;;;;18.23;69.05;100334.47;4996265;28;20219;-80
2022/10/24 10:20:37;;;;;;;2.60;1.70;;;;;;;18.23;68.77;100354.75;4994837;28;20215;-80
2022/10/24 10:23:28;;;;;;;3.73;1.70;;;;;;;18.23;69.12;100370.59;4995369;28;20203;-81
2022/10/24 10:26:11;;;;;;;4.73;1.90;;;;;;;18.24;68.89;100367.03;4991132;28;20235;-78
2022/10/24 10:28:52;;;;;;;3.70;1.63;;;;;;;18.19;68.62;100369.91;4995641;28;20216;-79
2022/10/24 10:31:22;;;;;;;5.03;1.93;;;;;;;18.20;69.51;100329.34;4994603;28;20211;-80
2022/10/24 10:34:04;;;;;;;4.27;2.40;;;;;;;18.17;70.03;100312.81;4995174;28;20236;-79
2022/10/24 10:36:34;;;;;;;3.63;2.03;;;;;;;18.18;69.53;100291.59;4995157;28;20238;-77
2022/10/24 10:39:19;;;;;;;6.37;2.13;;;;;;;18.14;69.72;100294.50;4994001;28;20222;-77
2022/10/24 10:41:48;;;;;;;3.53;2.00;;;;;;;18.16;69.83;100321.69;4993889;28;20195;-78
2022/10/24 10:44:34;;;;;;;4.13;1.87;;;;;;;18.14;69.26;100299.78;4993556;28;20227;-78
2022/10/24 10:47:10;;;;;;;6.80;1.63;;;;;;;18.15;68.08;100349.84;4988261;28;20203;-78
2022/10/24 10:49:39;;;;;;;2.83;1.77;;;;;;;18.16;68.49;100372.72;4990797;28;20207;-78
2022/10/24 10:52:11;;;;;;;3.27;1.57;;;;;;;18.17;68.17;100371.78;4992777;28;20254;-79
2022/10/24 10:54:53;;;;;;;5.20;1.67;;;;;;;18.28;69.75;100342.16;4993858;28;20223;-79
2022/10/24 10:57:24;;;;;;;3.63;1.70;;;;;;;18.31;68.52;100355.19;4992777;28;20234;-79
2022/10/24 10:59:57;;;;;;;1.77;1.27;;;;;;;18.26;67.98;100352.81;4992964;28;20215;-76
2022/10/24 11:02:50;;;;;;;5.77;2.13;;;;;;;18.30;68.25;100356.16;4993461;28;20211;-78
2022/10/24 11:05:33;;;;;;;5.43;1.77;;;;;;;18.34;69.71;100322.50;4993367;28;20215;-77
2022/10/24 11:08:09;;;;;;;6.53;2.10;;;;;;;18.31;68.58;100363.13;4993153;28;20229;-79
2022/10/24 11:10:40;;;;;;;4.00;1.67;;;;;;;18.30;69.54;100344.72;4993357;28;20210;-79
2022/10/24 11:13:16;;;;;;;2.80;1.87;;;;;;;18.25;69.04;100350.25;4993657;28;20233;-79
2022/10/24 11:15:46;;;;;;;3.77;1.80;;;;;;;18.22;68.74;100345.97;4993568;28;20254;-80
2022/10/24 11:18:21;;;;;;;3.53;2.03;;;;;;;18.24;68.97;100338.81;4993673;28;20207;-77
2022/10/24 11:20:52;;;;;;;4.93;2.03;;;;;;;18.21;67.69;100331.03;4993001;28;20221;-79
2022/10/24 11:23:28;;;;;;;5.23;1.50;;;;;;;18.25;68.68;100361.69;4993192;28;20286;-78
2022/10/24 11:25:59;;;;;;;4.73;1.93;;;;;;;18.35;68.12;100354.09;4993112;28;20211;-79
2022/10/24 11:28:31;;;;;;;4.90;1.50;;;;;;;18.48;69.41;100329.69;4992960;28;20207;-78
2022/10/24 11:31:01;;;;;;;4.93;1.60;;;;;;;18.54;69.47;100306.41;4992689;28;20210;-79
2022/10/24 11:33:32;;;;;;;5.13;2.27;;;;;;;18.54;68.75;100324.91;4993252;28;20226;-79
2022/10/24 11:36:09;;;;;;;3.53;1.83;;;;;;;18.55;68.52;100325.75;4992728;28;20230;-79